Time;durP1;ratioP1;P1;durP2;ratioP2;P2;SDS_P1;SDS_P2;PMS_P1;PMS_P2;Temp;Humidity;BMP_temperature;BMP_pressure;BME280_temperature;BME280_humidity;BME280_pressure;Samples;Min_cycle;Max_cycle;Signal;HPM_P1;HPM_P2
2021/11/22 00:01:10;;;;;;;5.50;0.30;;;4.10;99.90;;;;;;4988554;28;20066;-85
2021/11/22 00:03:38;;;;;;;2.28;0.30;;;4.00;99.90;;;;;;4972437;28;20048;-84
2021/11/22 00:06:04;;;;;;;2.55;0.30;;;4.10;99.90;;;;;;4988262;28;20034;-85
2021/11/22 00:08:30;;;;;;;2.60;0.40;;;4.00;99.90;;;;;;5004540;28;20030;-85
2021/11/22 00:10:56;;;;;;;3.67;0.40;;;4.10;99.90;;;;;;4988600;28;20045;-85
2021/11/22 00:13:21;;;;;;;2.95;0.40;;;4.00;99.90;;;;;;4988283;28;20037;-84
2021/11/22 00:15:47;;;;;;;3.88;0.68;;;4.00;99.90;;;;;;4988366;28;20032;-84
2021/11/22 00:18:14;;;;;;;3.33;0.38;;;4.00;99.90;;;;;;4988317;28;20068;-85
2021/11/22 00:20:40;;;;;;;3.85;0.30;;;4.10;99.90;;;;;;5005857;28;20053;-85
2021/11/22 00:23:06;;;;;;;2.78;0.30;;;4.00;99.90;;;;;;5011207;28;20044;-85
2021/11/22 00:25:32;;;;;;;3.60;0.38;;;4.10;99.90;;;;;;4995400;28;20125;-84
2021/11/22 00:27:57;;;;;;;3.40;0.30;;;4.00;99.90;;;;;;4995000;28;20034;-84
2021/11/22 00:30:29;;;;;;;5.47;0.50;;;3.90;99.90;;;;;;4996070;28;20036;-84
2021/11/22 00:33:03;;;;;;;2.67;0.32;;;4.00;99.90;;;;;;4996089;28;20030;-85
2021/11/22 00:35:47;;;;;;;;;;;4.10;99.90;;;;;;5011759;28;20030;-85
2021/11/22 00:38:13;;;;;;;1.73;0.50;;;4.00;99.90;;;;;;5011046;28;19916;-84
2021/11/22 00:40:39;;;;;;;4.13;0.60;;;4.10;99.90;;;;;;5011375;28;20033;-85
2021/11/22 00:43:06;;;;;;;2.65;0.40;;;4.10;99.90;;;;;;5011071;28;20030;-84
2021/11/22 00:45:32;;;;;;;3.72;0.40;;;4.00;99.90;;;;;;4994987;28;20553;-84
2021/11/22 00:47:59;;;;;;;1.92;0.30;;;4.00;99.90;;;;;;4994579;28;20065;-85
2021/11/22 00:50:27;;;;;;;2.55;0.28;;;4.10;99.90;;;;;;4994660;28;20112;-84
2021/11/22 00:52:52;;;;;;;4.40;0.40;;;4.10;99.90;;;;;;4994435;28;20089;-85
2021/11/22 00:55:18;;;;;;;2.45;0.40;;;4.10;99.90;;;;;;4994603;28;20030;-84
2021/11/22 00:57:44;;;;;;;1.77;0.30;;;4.00;99.90;;;;;;5010573;28;20073;-84
2021/11/22 01:00:13;;;;;;;4.75;0.40;;;4.10;99.90;;;;;;4994673;28;20038;-84
2021/11/22 01:02:38;;;;;;;2.70;0.30;;;4.10;99.90;;;;;;4994306;28;20061;-84
2021/11/22 01:05:05;;;;;;;4.97;0.30;;;4.10;99.90;;;;;;4994567;28;20037;-84
2021/11/22 01:07:31;;;;;;;3.00;0.30;;;4.10;99.90;;;;;;5010418;28;20026;-85
2021/11/22 01:09:58;;;;;;;3.60;0.30;;;4.00;99.90;;;;;;4994529;28;20101;-84
2021/11/22 01:12:27;;;;;;;4.03;0.35;;;4.00;99.90;;;;;;5010647;28;20034;-85
2021/11/22 01:14:58;;;;;;;4.38;0.40;;;4.00;99.90;;;;;;4994400;28;20105;-85
2021/11/22 01:17:24;;;;;;;2.78;0.45;;;4.00;99.90;;;;;;4994175;28;20030;-85
2021/11/22 01:19:53;;;;;;;7.32;0.60;;;4.00;99.90;;;;;;4995541;28;20022;-84
2021/11/22 01:22:21;;;;;;;1.85;0.35;;;4.10;99.90;;;;;;4988262;28;20514;-84
2021/11/22 01:24:48;;;;;;;2.90;0.40;;;4.00;99.90;;;;;;4991079;28;20046;-84
2021/11/22 01:27:14;;;;;;;3.70;0.40;;;4.00;99.90;;;;;;4991134;28;20029;-84
2021/11/22 01:29:40;;;;;;;2.10;0.30;;;4.00;99.90;;;;;;4974970;28;20395;-85
2021/11/22 01:32:06;;;;;;;3.42;0.60;;;3.90;99.90;;;;;;4990777;28;20041;-84
2021/11/22 01:34:32;;;;;;;3.90;0.32;;;4.00;99.90;;;;;;4990816;28;20030;-84
2021/11/22 01:36:57;;;;;;;2.65;0.30;;;4.00;99.90;;;;;;4990580;28;20116;-85
2021/11/22 01:39:23;;;;;;;1.70;0.45;;;4.00;99.90;;;;;;4990673;28;20027;-84
2021/11/22 01:41:49;;;;;;;5.38;0.22;;;3.90;99.90;;;;;;4990776;28;20042;-84
2021/11/22 01:44:15;;;;;;;3.30;0.30;;;3.90;99.90;;;;;;4990574;28;20046;-84
2021/11/22 01:46:41;;;;;;;2.45;1.02;;;3.90;99.90;;;;;;5007941;28;20045;-84
2021/11/22 01:49:07;;;;;;;1.95;0.28;;;3.90;99.90;;;;;;4990418;28;20042;-84
2021/11/22 01:51:33;;;;;;;1.77;0.30;;;3.80;99.90;;;;;;4974368;28;20077;-84
2021/11/22 01:53:59;;;;;;;2.90;0.30;;;3.80;99.90;;;;;;4990179;28;20035;-84
2021/11/22 01:56:26;;;;;;;2.35;0.20;;;3.80;99.90;;;;;;4990026;28;20395;-84
2021/11/22 01:58:52;;;;;;;1.25;0.25;;;3.70;99.90;;;;;;4990348;28;20045;-84
2021/11/22 02:01:18;;;;;;;4.43;0.22;;;3.70;99.90;;;;;;4990310;28;20093;-83
2021/11/22 02:03:44;;;;;;;3.30;0.25;;;3.60;99.90;;;;;;4990233;28;20064;-84
2021/11/22 02:06:10;;;;;;;2.70;0.30;;;3.70;99.90;;;;;;4990066;28;20026;-84
2021/11/22 02:08:36;;;;;;;5.05;0.30;;;3.70;99.90;;;;;;4973866;28;20034;-84
2021/11/22 02:11:03;;;;;;;0.90;0.20;;;3.60;99.90;;;;;;4990254;28;20064;-84
2021/11/22 02:13:29;;;;;;;5.97;0.30;;;3.60;99.90;;;;;;4989874;28;20077;-84
2021/11/22 02:15:54;;;;;;;1.20;0.20;;;3.60;99.90;;;;;;4973746;28;20034;-84
2021/11/22 02:18:21;;;;;;;4.50;0.30;;;3.60;99.90;;;;;;4989903;28;20050;-84
2021/11/22 02:20:47;;;;;;;3.40;0.30;;;3.50;99.90;;;;;;4998105;28;20049;-84
2021/11/22 02:23:13;;;;;;;0.95;0.20;;;3.50;99.90;;;;;;5009028;28;20045;-85
2021/11/22 02:25:41;;;;;;;1.15;0.20;;;3.50;99.90;;;;;;4993046;28;20038;-85
2021/11/22 02:28:09;;;;;;;0.50;0.20;;;3.40;99.90;;;;;;4992947;28;20145;-84
2021/11/22 02:30:38;;;;;;;1.83;0.28;;;3.40;99.90;;;;;;4993031;28;20030;-84
2021/11/22 02:33:07;;;;;;;0.93;0.20;;;3.40;99.90;;;;;;5009301;28;20034;-84
2021/11/22 02:35:35;;;;;;;1.83;0.20;;;3.40;99.90;;;;;;4993109;28;20070;-84
2021/11/22 02:38:01;;;;;;;1.40;0.20;;;3.40;99.90;;;;;;4992741;28;20036;-84
2021/11/22 02:40:26;;;;;;;3.25;0.30;;;3.30;99.90;;;;;;4992737;28;20060;-83
2021/11/22 02:42:52;;;;;;;1.90;0.20;;;3.40;99.90;;;;;;4992195;28;20117;-84
2021/11/22 02:45:20;;;;;;;1.27;0.30;;;3.40;99.90;;;;;;5009070;28;20040;-85
2021/11/22 02:47:47;;;;;;;2.75;0.30;;;3.30;99.90;;;;;;4992694;28;20032;-85
2021/11/22 02:50:14;;;;;;;2.90;0.30;;;3.30;99.90;;;;;;5008537;28;20066;-84
2021/11/22 02:52:41;;;;;;;1.23;0.20;;;3.20;99.90;;;;;;4992501;28;20053;-84
2021/11/22 02:55:10;;;;;;;2.85;0.35;;;3.20;99.90;;;;;;4992424;28;20040;-84
2021/11/22 02:57:36;;;;;;;1.45;0.30;;;3.30;99.90;;;;;;4992316;28;20045;-84
2021/11/22 03:00:04;;;;;;;1.45;0.30;;;3.30;99.90;;;;;;4992362;28;20029;-84
2021/11/22 03:02:30;;;;;;;2.30;0.28;;;3.30;99.90;;;;;;4992343;28;20044;-85
2021/11/22 03:04:55;;;;;;;2.83;0.30;;;3.30;99.90;;;;;;4992564;28;20113;-85
2021/11/22 03:07:21;;;;;;;1.27;0.30;;;3.30;99.90;;;;;;4992504;28;20037;-83
2021/11/22 03:09:47;;;;;;;2.47;0.30;;;3.20;99.90;;;;;;4992129;28;20052;-85
2021/11/22 03:12:13;;;;;;;2.83;0.93;;;3.20;99.90;;;;;;4992547;28;20034;-85
2021/11/22 03:14:41;;;;;;;4.53;0.30;;;3.10;99.90;;;;;;5008449;28;20034;-83
2021/11/22 03:17:07;;;;;;;0.90;0.30;;;3.20;99.90;;;;;;4992210;28;20030;-85
2021/11/22 03:19:33;;;;;;;4.05;0.82;;;3.10;99.90;;;;;;4992173;28;20072;-84
2021/11/22 03:21:59;;;;;;;2.15;0.30;;;3.20;99.90;;;;;;5005131;28;20054;-84
2021/11/22 03:24:26;;;;;;;1.13;0.20;;;3.20;99.90;;;;;;4972836;28;20398;-84
2021/11/22 03:26:52;;;;;;;1.67;0.30;;;3.10;99.90;;;;;;4988721;28;20030;-84
2021/11/22 03:29:18;;;;;;;1.08;0.30;;;3.10;99.90;;;;;;4988963;28;20065;-84
2021/11/22 03:31:44;;;;;;;0.70;0.22;;;3.10;99.90;;;;;;4972704;28;20028;-84
2021/11/22 03:34:11;;;;;;;1.25;0.20;;;3.10;99.90;;;;;;4988783;28;20034;-84
2021/11/22 03:36:37;;;;;;;4.07;0.30;;;3.00;99.90;;;;;;4988609;28;20109;-84
2021/11/22 03:39:11;;;;;;;2.63;0.30;;;3.10;99.90;;;;;;4988701;28;20030;-84
2021/11/22 03:41:37;;;;;;;1.90;0.30;;;3.00;99.90;;;;;;4988612;28;20121;-84
2021/11/22 03:44:13;;;;;;;2.58;0.30;;;3.00;99.90;;;;;;4988624;28;20061;-84
2021/11/22 03:46:43;;;;;;;3.22;0.47;;;2.90;99.90;;;;;;4988463;28;20498;-85
2021/11/22 03:49:09;;;;;;;2.27;0.40;;;3.00;99.90;;;;;;4988459;28;20030;-84
2021/11/22 03:51:35;;;;;;;3.20;0.38;;;2.90;99.90;;;;;;4987861;28;20039;-84
2021/11/22 03:54:00;;;;;;;3.08;0.30;;;2.90;99.90;;;;;;4973168;28;20099;-83
2021/11/22 03:56:26;;;;;;;2.33;0.30;;;2.90;99.90;;;;;;4991937;28;20030;-84
2021/11/22 03:58:52;;;;;;;3.55;0.32;;;2.90;99.90;;;;;;4992365;28;20034;-84
2021/11/22 04:01:17;;;;;;;1.52;0.35;;;2.80;99.90;;;;;;5009795;28;20034;-84
2021/11/22 04:03:44;;;;;;;1.50;0.30;;;2.80;99.90;;;;;;4976124;28;20038;-84
2021/11/22 04:06:10;;;;;;;4.30;0.32;;;2.70;99.90;;;;;;4991961;28;20081;-84
2021/11/22 04:08:36;;;;;;;5.70;0.30;;;2.80;99.90;;;;;;4992112;28;20030;-84
2021/11/22 04:11:01;;;;;;;2.75;0.30;;;2.80;99.90;;;;;;4991884;28;20134;-84
2021/11/22 04:13:27;;;;;;;2.58;0.20;;;2.80;99.90;;;;;;4992219;28;20038;-84
2021/11/22 04:15:53;;;;;;;1.48;0.35;;;2.70;99.90;;;;;;4991900;28;20031;-84
2021/11/22 04:18:19;;;;;;;1.05;0.30;;;2.70;99.90;;;;;;4992190;28;20120;-83
2021/11/22 04:20:45;;;;;;;2.40;0.30;;;2.70;99.90;;;;;;5012321;23;20046;-84
2021/11/22 04:23:11;;;;;;;3.05;0.30;;;2.70;99.90;;;;;;5028197;28;20034;-84
2021/11/22 04:25:38;;;;;;;1.48;0.30;;;2.70;99.90;;;;;;5028329;28;20556;-84
2021/11/22 04:28:06;;;;;;;2.42;0.30;;;2.70;99.90;;;;;;5011515;28;20367;-84
2021/11/22 04:30:33;;;;;;;1.00;0.30;;;2.60;99.90;;;;;;5028184;28;20037;-84
2021/11/22 04:33:00;;;;;;;0.90;0.35;;;2.60;99.90;;;;;;5011639;28;20034;-83
2021/11/22 04:35:25;;;;;;;4.15;0.30;;;2.50;99.90;;;;;;5027803;28;20072;-84
2021/11/22 04:37:51;;;;;;;3.80;0.30;;;2.60;99.90;;;;;;5027599;28;20398;-83
2021/11/22 04:40:19;;;;;;;0.93;0.28;;;2.60;99.90;;;;;;5027836;28;20037;-84
2021/11/22 04:42:47;;;;;;;3.22;0.20;;;2.50;99.90;;;;;;5027428;28;20034;-84
2021/11/22 04:45:15;;;;;;;0.70;0.20;;;2.50;99.90;;;;;;5027694;28;20041;-83
2021/11/22 04:47:41;;;;;;;0.70;0.30;;;2.50;99.90;;;;;;5027349;28;20040;-84
2021/11/22 04:50:07;;;;;;;1.20;0.30;;;2.50;99.90;;;;;;5027456;28;20050;-84
2021/11/22 04:52:34;;;;;;;1.83;0.20;;;2.40;99.90;;;;;;5027362;28;20030;-83
2021/11/22 04:54:59;;;;;;;0.52;0.13;;;2.40;99.90;;;;;;5027296;28;20033;-84
2021/11/22 04:57:25;;;;;;;1.75;0.20;;;2.40;99.90;;;;;;5043427;28;20040;-83
2021/11/22 04:59:51;;;;;;;2.45;0.40;;;2.40;99.90;;;;;;5043765;28;20034;-83
2021/11/22 05:02:16;;;;;;;3.92;0.30;;;2.30;99.90;;;;;;5043609;28;20037;-82
2021/11/22 05:04:42;;;;;;;1.67;0.30;;;2.30;99.90;;;;;;5027202;28;20052;-84
2021/11/22 05:07:15;;;;;;;0.47;0.20;;;2.30;99.90;;;;;;5042134;28;20038;-83
2021/11/22 05:09:45;;;;;;;0.77;0.20;;;2.20;99.90;;;;;;5043702;28;20153;-83
2021/11/22 05:12:11;;;;;;;2.65;0.30;;;2.30;99.90;;;;;;5043663;28;20026;-83
2021/11/22 05:14:37;;;;;;;0.63;0.20;;;2.20;99.90;;;;;;5043485;28;20057;-85
2021/11/22 05:17:02;;;;;;;2.28;0.22;;;2.20;99.90;;;;;;5043200;28;20038;-84
2021/11/22 05:19:30;;;;;;;1.98;0.40;;;2.10;99.90;;;;;;5043423;28;20044;-84
2021/11/22 05:22:01;;;;;;;2.15;0.30;;;2.20;99.90;;;;;;5042887;28;21378;-83
2021/11/22 05:24:29;;;;;;;;;;;2.20;99.90;;;;;;5010748;28;20038;-84
2021/11/22 05:26:56;;;;;;;2.28;0.28;;;2.30;99.90;;;;;;5026670;28;19916;-84
2021/11/22 05:29:22;;;;;;;1.15;0.20;;;2.20;99.90;;;;;;5026685;28;20057;-83
2021/11/22 05:31:48;;;;;;;1.35;0.30;;;2.10;99.90;;;;;;5026554;28;20080;-84
2021/11/22 05:34:17;;;;;;;1.85;0.30;;;2.20;99.90;;;;;;5010170;28;20490;-84
2021/11/22 05:36:44;;;;;;;1.70;0.30;;;2.10;99.90;;;;;;5009916;28;20040;-83
2021/11/22 05:39:09;;;;;;;4.10;0.30;;;2.20;99.90;;;;;;5020009;28;20069;-82
2021/11/22 05:41:35;;;;;;;2.03;0.30;;;2.20;99.90;;;;;;5006319;28;20031;-82
2021/11/22 05:44:01;;;;;;;0.93;0.30;;;2.20;99.90;;;;;;5006357;28;20094;-83
2021/11/22 05:46:27;;;;;;;0.82;0.28;;;2.10;99.90;;;;;;5022808;28;20075;-83
2021/11/22 05:48:52;;;;;;;3.47;0.60;;;2.10;99.90;;;;;;5006302;28;20027;-84
2021/11/22 05:51:19;;;;;;;4.47;0.40;;;2.10;99.90;;;;;;5006529;28;20026;-84
2021/11/22 05:53:49;;;;;;;1.40;0.40;;;2.10;99.90;;;;;;5006076;28;20050;-83
2021/11/22 05:56:18;;;;;;;0.80;0.30;;;2.00;99.90;;;;;;5025809;28;20032;-83
2021/11/22 05:58:44;;;;;;;1.40;0.30;;;2.10;99.90;;;;;;5026977;28;20026;-83
2021/11/22 06:01:12;;;;;;;2.90;0.45;;;2.10;99.90;;;;;;5042377;28;20455;-83
2021/11/22 06:03:37;;;;;;;6.45;0.32;;;1.90;99.90;;;;;;5042269;28;20042;-82
2021/11/22 06:06:03;;;;;;;1.20;0.30;;;2.00;99.90;;;;;;5009106;28;20033;-83
2021/11/22 06:08:29;;;;;;;0.90;0.30;;;2.00;99.90;;;;;;5008889;28;20030;-82
2021/11/22 06:10:54;;;;;;;2.10;0.85;;;1.90;99.90;;;;;;5009303;28;20030;-83
2021/11/22 06:13:21;;;;;;;2.70;0.30;;;1.80;99.90;;;;;;5009096;28;20376;-83
2021/11/22 06:15:47;;;;;;;1.90;0.30;;;1.80;99.90;;;;;;5025450;28;20052;-83
2021/11/22 06:18:15;;;;;;;1.15;0.40;;;1.90;99.90;;;;;;5008094;28;20040;-83
2021/11/22 06:20:41;;;;;;;1.25;0.30;;;1.90;99.90;;;;;;5041812;28;20046;-83
2021/11/22 06:23:07;;;;;;;0.77;0.20;;;1.90;99.90;;;;;;5012609;28;20041;-83
2021/11/22 06:25:33;;;;;;;3.53;0.35;;;1.80;99.90;;;;;;4989731;28;20030;-83
2021/11/22 06:27:59;;;;;;;3.22;0.30;;;1.80;99.90;;;;;;5021912;28;20105;-84
2021/11/22 06:30:25;;;;;;;0.98;0.28;;;1.80;99.90;;;;;;5005763;28;20034;-84
2021/11/22 06:32:52;;;;;;;1.58;0.20;;;1.70;99.90;;;;;;5006835;28;20085;-83
2021/11/22 06:35:19;;;;;;;1.42;0.35;;;1.70;99.90;;;;;;5022106;28;20026;-84
2021/11/22 06:37:44;;;;;;;1.48;0.40;;;1.70;99.90;;;;;;5005266;28;20069;-84
2021/11/22 06:40:10;;;;;;;1.45;0.60;;;1.60;99.90;;;;;;4989481;28;20057;-84
2021/11/22 06:42:37;;;;;;;4.47;0.25;;;1.60;99.90;;;;;;5005592;28;20065;-84
2021/11/22 06:45:05;;;;;;;1.85;0.30;;;1.60;99.90;;;;;;4989460;28;20422;-83
2021/11/22 06:47:31;;;;;;;4.25;0.40;;;1.60;99.90;;;;;;4989192;28;20031;-84
2021/11/22 06:49:57;;;;;;;2.88;0.30;;;1.70;99.90;;;;;;5005511;28;20050;-84
2021/11/22 06:52:23;;;;;;;1.83;0.20;;;1.60;99.90;;;;;;4988821;28;20031;-85
2021/11/22 06:54:50;;;;;;;1.63;0.30;;;1.60;99.90;;;;;;5008945;28;20026;-84
2021/11/22 06:57:16;;;;;;;2.45;0.28;;;1.60;99.90;;;;;;5005255;28;20038;-84
2021/11/22 06:59:43;;;;;;;0.98;0.30;;;1.70;99.90;;;;;;5004952;28;20038;-84
2021/11/22 07:02:18;;;;;;;1.10;0.40;;;1.70;99.90;;;;;;5005289;28;20034;-83
2021/11/22 07:04:46;;;;;;;3.08;0.30;;;1.60;99.90;;;;;;5004948;28;20038;-83
2021/11/22 07:07:13;;;;;;;1.35;0.30;;;1.60;99.90;;;;;;5004885;28;20030;-84
2021/11/22 07:09:38;;;;;;;1.52;0.50;;;1.70;99.90;;;;;;5004992;28;20065;-85
2021/11/22 07:12:05;;;;;;;2.13;0.30;;;1.70;99.90;;;;;;4988955;28;20027;-84
2021/11/22 07:14:32;;;;;;;1.55;0.40;;;1.70;99.90;;;;;;5005241;28;20034;-84
2021/11/22 07:16:58;;;;;;;2.05;0.85;;;1.70;99.90;;;;;;5004683;28;20026;-84
2021/11/22 07:19:24;;;;;;;3.92;0.82;;;1.60;99.90;;;;;;4988039;28;20050;-83
2021/11/22 07:21:51;;;;;;;2.85;0.45;;;1.70;99.90;;;;;;5006055;28;20077;-83
2021/11/22 07:24:17;;;;;;;1.30;0.30;;;1.70;99.90;;;;;;5007690;28;20042;-83
2021/11/22 07:26:43;;;;;;;3.45;0.40;;;1.70;99.90;;;;;;5023914;28;20037;-84
2021/11/22 07:29:09;;;;;;;2.38;0.35;;;1.80;99.90;;;;;;5025653;28;20037;-84
2021/11/22 07:31:35;;;;;;;0.95;0.32;;;1.70;99.90;;;;;;5030439;28;20493;-84
2021/11/22 07:34:01;;;;;;;1.77;0.40;;;1.70;99.90;;;;;;5030549;28;20042;-83
2021/11/22 07:36:27;;;;;;;1.75;0.55;;;1.70;99.90;;;;;;5030924;28;20045;-83
2021/11/22 07:38:52;;;;;;;3.17;0.40;;;1.70;99.90;;;;;;5031425;28;20136;-84
2021/11/22 07:41:19;;;;;;;2.88;0.50;;;1.70;99.90;;;;;;5032322;28;20061;-84
2021/11/22 07:43:45;;;;;;;2.30;0.55;;;1.80;99.90;;;;;;5031253;28;20042;-84
2021/11/22 07:46:10;;;;;;;5.70;0.75;;;1.80;99.90;;;;;;5030055;28;20041;-84
2021/11/22 07:48:36;;;;;;;4.25;0.40;;;1.80;99.90;;;;;;5030295;28;20034;-84
2021/11/22 07:51:03;;;;;;;2.13;0.50;;;1.80;99.90;;;;;;5030010;28;20076;-83
2021/11/22 07:53:30;;;;;;;4.35;0.98;;;1.80;99.90;;;;;;5030050;28;20088;-84
2021/11/22 07:55:56;;;;;;;1.85;0.50;;;1.80;99.90;;;;;;5029917;28;20029;-84
2021/11/22 07:58:22;;;;;;;3.10;0.50;;;1.80;99.90;;;;;;5030120;28;20165;-83
2021/11/22 08:00:47;;;;;;;2.63;0.50;;;1.80;99.90;;;;;;4988171;28;20117;-83
2021/11/22 08:03:13;;;;;;;2.10;0.50;;;1.80;99.90;;;;;;5028589;28;20036;-83
2021/11/22 08:05:40;;;;;;;2.55;0.70;;;1.90;99.90;;;;;;5012615;28;20056;-83
2021/11/22 08:08:06;;;;;;;1.95;0.50;;;1.90;99.90;;;;;;5009774;28;20034;-83
2021/11/22 08:10:34;;;;;;;1.55;0.50;;;1.90;99.90;;;;;;5012509;28;20061;-84
2021/11/22 08:13:08;;;;;;;2.40;0.38;;;1.80;99.90;;;;;;5012871;28;20034;-83
2021/11/22 08:15:36;;;;;;;4.90;0.70;;;1.90;99.90;;;;;;5026194;28;20030;-83
2021/11/22 08:18:05;;;;;;;3.95;0.60;;;2.00;99.90;;;;;;5012607;28;20041;-82
2021/11/22 08:20:32;;;;;;;2.35;0.50;;;1.90;99.90;;;;;;5012406;28;20054;-83
2021/11/22 08:22:58;;;;;;;1.45;0.47;;;2.00;99.90;;;;;;5009621;28;20035;-83
2021/11/22 08:25:27;;;;;;;3.25;1.17;;;2.10;99.90;;;;;;5028960;28;20037;-83
2021/11/22 08:27:54;;;;;;;1.50;0.70;;;2.20;99.90;;;;;;5012841;28;20352;-84
2021/11/22 08:30:22;;;;;;;1.92;1.30;;;2.20;99.90;;;;;;5012411;28;20054;-82
2021/11/22 08:32:50;;;;;;;2.55;0.65;;;2.30;99.90;;;;;;5029223;28;20038;-82
2021/11/22 08:35:18;;;;;;;1.83;0.80;;;2.20;99.90;;;;;;5029691;28;20036;-83
2021/11/22 08:37:44;;;;;;;2.92;0.40;;;2.50;99.90;;;;;;5012987;28;20030;-84
2021/11/22 08:40:13;;;;;;;1.73;0.40;;;2.40;99.90;;;;;;5029181;28;20040;-85
2021/11/22 08:42:39;;;;;;;1.50;0.40;;;2.40;99.90;;;;;;5026189;28;20034;-83
2021/11/22 08:45:06;;;;;;;3.97;0.98;;;2.60;99.90;;;;;;5026559;28;20110;-83
2021/11/22 08:47:32;;;;;;;1.83;0.52;;;2.60;99.90;;;;;;5010030;28;20032;-83
2021/11/22 08:49:58;;;;;;;3.63;0.47;;;2.80;99.90;;;;;;5026386;28;20053;-83
2021/11/22 08:52:24;;;;;;;3.85;0.50;;;2.80;99.90;;;;;;5026079;28;20033;-83
2021/11/22 08:54:52;;;;;;;2.17;0.50;;;2.90;99.90;;;;;;5027835;28;20040;-83
2021/11/22 08:57:18;;;;;;;1.77;0.40;;;3.00;99.90;;;;;;5026341;28;20037;-84
2021/11/22 08:59:44;;;;;;;1.67;0.50;;;3.10;99.90;;;;;;5043047;28;20086;-83
2021/11/22 09:02:11;;;;;;;2.47;0.40;;;3.10;99.90;;;;;;5026403;28;20045;-83
2021/11/22 09:04:37;;;;;;;1.42;0.40;;;3.20;99.90;;;;;;5043097;28;20045;-84
2021/11/22 09:07:04;;;;;;;2.60;0.40;;;3.30;99.90;;;;;;5042567;28;20041;-84
2021/11/22 09:09:30;;;;;;;4.20;0.50;;;3.30;99.90;;;;;;5043833;28;20030;-84
2021/11/22 09:11:56;;;;;;;1.30;0.50;;;3.40;99.90;;;;;;5026218;28;20117;-84
2021/11/22 09:14:22;;;;;;;1.92;0.40;;;3.50;99.90;;;;;;5027216;28;20061;-84
2021/11/22 09:16:48;;;;;;;4.13;0.70;;;3.60;99.90;;;;;;5025632;28;20025;-84
2021/11/22 09:19:14;;;;;;;1.95;0.47;;;3.60;99.90;;;;;;5042141;28;20041;-83
2021/11/22 09:21:40;;;;;;;1.45;0.40;;;3.60;99.90;;;;;;5042198;28;20057;-83
2021/11/22 09:24:06;;;;;;;5.78;0.98;;;3.70;99.90;;;;;;5025830;28;20048;-84
2021/11/22 09:26:32;;;;;;;1.08;0.40;;;3.80;99.90;;;;;;5026064;28;20040;-84
2021/11/22 09:28:59;;;;;;;2.95;0.40;;;3.90;99.90;;;;;;5009709;28;20045;-84
2021/11/22 09:31:24;;;;;;;3.40;0.60;;;4.00;99.90;;;;;;5025853;28;20192;-84
2021/11/22 09:33:52;;;;;;;1.13;0.40;;;4.00;99.90;;;;;;5025765;28;20046;-84
2021/11/22 09:36:19;;;;;;;4.15;0.50;;;4.10;99.90;;;;;;5025411;28;20042;-84
2021/11/22 09:38:45;;;;;;;5.93;0.70;;;4.30;99.90;;;;;;5009477;28;20124;-84
2021/11/22 09:41:11;;;;;;;2.90;0.60;;;4.30;99.90;;;;;;5025637;28;20037;-84
2021/11/22 09:43:40;;;;;;;3.95;0.50;;;4.50;99.90;;;;;;5009284;28;20037;-85
2021/11/22 09:46:06;;;;;;;1.30;0.40;;;4.40;99.90;;;;;;5025536;28;20026;-84
2021/11/22 09:48:32;;;;;;;2.42;0.40;;;4.60;99.90;;;;;;5009147;28;20044;-84
2021/11/22 09:50:57;;;;;;;1.00;0.40;;;4.70;99.90;;;;;;5025156;28;20026;-84
2021/11/22 09:53:23;;;;;;;3.35;0.65;;;4.80;99.90;;;;;;5025324;28;20029;-84
2021/11/22 09:55:48;;;;;;;2.88;0.50;;;4.80;99.90;;;;;;5026371;28;20034;-84
2021/11/22 09:58:15;;;;;;;2.72;0.40;;;4.90;99.90;;;;;;5009141;28;20029;-84
2021/11/22 10:00:43;;;;;;;3.40;0.50;;;4.90;99.90;;;;;;5008895;28;20033;-83
2021/11/22 10:03:21;;;;;;;2.72;0.40;;;5.00;99.90;;;;;;5008922;28;20038;-84
2021/11/22 10:05:53;;;;;;;2.35;0.40;;;5.00;99.90;;;;;;5008293;28;20121;-84
2021/11/22 10:08:22;;;;;;;2.35;0.55;;;5.10;99.90;;;;;;5025178;28;20038;-84
2021/11/22 10:10:56;;;;;;;2.35;0.50;;;5.30;99.90;;;;;;5008656;28;20030;-85
2021/11/22 10:13:37;;;;;;;1.55;0.40;;;5.30;99.90;;;;;;5009022;28;20033;-84
2021/11/22 10:16:12;;;;;;;1.90;0.40;;;5.50;99.90;;;;;;5024951;28;20034;-84
2021/11/22 10:19:16;;;;;;;2.13;0.47;;;5.60;99.90;;;;;;5008938;28;20021;-84
2021/11/22 10:21:41;;;;;;;1.38;0.30;;;5.60;99.90;;;;;;4948570;29;20054;-84
2021/11/22 10:24:10;;;;;;;2.03;0.40;;;5.80;99.90;;;;;;4965189;29;20083;-85
2021/11/22 10:26:47;;;;;;;2.75;0.30;;;5.80;99.90;;;;;;4964960;29;20039;-84
2021/11/22 10:29:27;;;;;;;4.55;0.50;;;6.10;99.90;;;;;;4965278;29;20059;-85
2021/11/22 10:31:54;;;;;;;1.35;0.50;;;5.90;99.90;;;;;;4965234;29;20578;-84
2021/11/22 10:34:20;;;;;;;3.58;0.60;;;5.90;99.90;;;;;;4965056;29;20039;-84
2021/11/22 10:36:58;;;;;;;1.83;0.50;;;5.80;99.90;;;;;;4964704;29;20146;-84
2021/11/22 10:39:26;;;;;;;1.13;0.40;;;5.90;99.90;;;;;;4964957;29;20145;-86
2021/11/22 10:41:52;;;;;;;4.43;0.60;;;6.00;99.90;;;;;;4965045;29;20127;-85
2021/11/22 10:44:18;;;;;;;3.20;0.60;;;5.90;99.90;;;;;;4965038;29;20051;-84
2021/11/22 10:47:05;;;;;;;3.38;1.02;;;5.90;99.90;;;;;;4964830;29;20075;-85
2021/11/22 10:49:46;;;;;;;1.80;0.50;;;5.90;99.90;;;;;;4964739;29;20543;-88
2021/11/22 10:52:37;;;;;;;3.75;0.52;;;6.10;99.90;;;;;;4964850;29;20095;-85
2021/11/22 10:55:09;;;;;;;3.30;0.50;;;5.90;99.90;;;;;;4966772;28;20031;-85
2021/11/22 10:57:44;;;;;;;4.20;0.57;;;6.10;99.90;;;;;;4968866;28;20042;-85
2021/11/22 11:00:24;;;;;;;1.52;0.40;;;6.10;99.90;;;;;;4988504;28;20038;-85
2021/11/22 11:02:52;;;;;;;0.95;0.40;;;6.40;99.90;;;;;;5004501;28;20061;-84
2021/11/22 11:05:25;;;;;;;2.17;0.60;;;6.40;99.90;;;;;;4987541;28;20082;-85
2021/11/22 11:07:59;;;;;;;1.40;0.50;;;6.40;99.90;;;;;;5004459;28;20027;-85
2021/11/22 11:10:25;;;;;;;4.57;0.93;;;6.60;99.90;;;;;;5004730;28;20034;-85
2021/11/22 11:12:55;;;;;;;5.88;0.90;;;6.40;99.90;;;;;;4988393;28;20042;-85
2021/11/22 11:15:22;;;;;;;3.95;0.60;;;6.40;99.90;;;;;;4988290;28;20030;-85
2021/11/22 11:17:47;;;;;;;2.75;0.50;;;6.40;99.90;;;;;;4988281;28;20048;-84
2021/11/22 11:20:16;;;;;;;1.80;0.60;;;6.50;99.90;;;;;;5019853;28;20077;-84
2021/11/22 11:22:42;;;;;;;1.75;0.55;;;6.60;99.90;;;;;;5013428;28;20034;-85
2021/11/22 11:25:08;;;;;;;2.90;0.40;;;6.70;99.90;;;;;;5020875;28;20046;-84
2021/11/22 11:27:38;;;;;;;3.25;0.40;;;6.80;99.90;;;;;;4988215;28;20053;-84
2021/11/22 11:30:05;;;;;;;2.42;0.40;;;6.90;99.90;;;;;;5020979;28;20047;-84
2021/11/22 11:32:31;;;;;;;1.92;0.40;;;6.90;99.90;;;;;;5004510;28;20039;-84
2021/11/22 11:34:58;;;;;;;1.58;0.35;;;7.00;99.90;;;;;;4988035;28;20026;-84
2021/11/22 11:37:56;;;;;;;7.10;0.70;;;7.00;99.90;;;;;;4987867;28;20081;-85
2021/11/22 11:40:37;;;;;;;4.63;0.57;;;7.00;99.90;;;;;;4988207;28;20041;-85
2021/11/22 11:43:28;;;;;;;4.20;0.60;;;6.80;99.90;;;;;;4988123;28;20107;-85
2021/11/22 11:46:27;;;;;;;2.70;0.43;;;6.90;99.90;;;;;;5004443;28;20053;-85
2021/11/22 11:49:09;;;;;;;1.38;0.40;;;7.00;99.90;;;;;;4988582;28;20526;-86
2021/11/22 11:51:46;;;;;;;1.13;0.30;;;7.00;99.90;;;;;;4988062;28;20034;-85
2021/11/22 11:54:15;;;;;;;2.40;0.40;;;7.10;99.90;;;;;;5020494;28;20054;-84
2021/11/22 11:56:51;;;;;;;1.15;0.30;;;7.10;99.90;;;;;;5019338;28;20363;-84
2021/11/22 11:59:40;;;;;;;1.20;0.40;;;7.20;99.90;;;;;;5007501;28;20322;-84
2021/11/22 12:02:33;;;;;;;2.22;0.30;;;7.40;99.90;;;;;;5024078;28;20062;-84
2021/11/22 12:05:05;;;;;;;3.40;0.30;;;7.30;99.90;;;;;;5004797;28;20077;-85
2021/11/22 12:07:39;;;;;;;1.75;0.30;;;7.10;99.90;;;;;;5039910;28;20033;-85
2021/11/22 12:10:24;;;;;;;5.38;1.50;;;7.10;99.90;;;;;;5040221;28;20037;-84
2021/11/22 12:13:07;;;;;;;3.75;0.20;;;7.20;99.90;;;;;;5040061;28;20060;-84
2021/11/22 12:15:46;;;;;;;1.23;0.20;;;7.40;99.90;;;;;;5040171;28;20038;-84
2021/11/22 12:18:24;;;;;;;0.75;0.10;;;7.50;99.90;;;;;;5027231;28;20037;-84
2021/11/22 12:20:52;;;;;;;1.67;0.20;;;7.50;99.90;;;;;;5043101;28;20062;-84
2021/11/22 12:23:21;;;;;;;2.92;0.32;;;7.40;99.90;;;;;;5043418;28;20080;-84
2021/11/22 12:25:50;;;;;;;2.28;0.25;;;7.20;99.90;;;;;;5027082;28;20056;-85
2021/11/22 12:28:19;;;;;;;1.13;0.22;;;7.40;99.90;;;;;;5028230;28;20466;-85
2021/11/22 12:30:48;;;;;;;0.80;0.30;;;7.40;99.90;;;;;;5010776;28;20123;-84
2021/11/22 12:33:24;;;;;;;2.33;0.20;;;7.40;99.90;;;;;;5027041;28;20034;-85
2021/11/22 12:35:56;;;;;;;1.25;0.35;;;7.30;99.90;;;;;;5026811;28;20038;-85
2021/11/22 12:38:25;;;;;;;1.13;0.35;;;7.40;99.90;;;;;;5043025;28;20179;-85
2021/11/22 12:40:54;;;;;;;1.80;0.30;;;7.20;99.90;;;;;;5043346;28;20030;-85
2021/11/22 12:43:38;;;;;;;1.00;0.20;;;7.40;99.90;;;;;;5010456;28;20041;-84
2021/11/22 12:46:04;;;;;;;1.30;0.30;;;7.50;99.90;;;;;;5010231;28;20060;-85
2021/11/22 12:48:31;;;;;;;2.67;0.30;;;7.30;99.90;;;;;;5026220;28;20052;-85
2021/11/22 12:51:00;;;;;;;1.80;0.30;;;7.20;99.90;;;;;;5026752;28;20047;-85
2021/11/22 12:53:26;;;;;;;4.53;0.35;;;7.30;99.90;;;;;;5026601;28;20084;-85
2021/11/22 12:55:55;;;;;;;1.50;0.30;;;7.30;99.90;;;;;;5026613;28;20037;-85
2021/11/22 12:58:27;;;;;;;0.95;0.30;;;7.30;99.90;;;;;;5010183;28;20101;-86
2021/11/22 13:00:57;;;;;;;1.73;0.40;;;7.20;99.90;;;;;;5026494;28;20030;-85
2021/11/22 13:03:24;;;;;;;1.23;0.30;;;7.30;99.90;;;;;;5026090;28;20110;-84